NCAR-RAP Real-Time Weather Data

Output produced by METARs form (30 April 2017  03:15 UTC)
found at http://weather.rap.ucar.edu/surface/
 
Conditions at: KBKV observed 30 April 2017  02:53 UTC
Temperature: 26.7°C (80°F)
Dewpoint: 17.2°C (63°F) [RH = 56%]
Pressure (altimeter): 30.11 inches Hg (1019.7 mb)
[Sea-level pressure: 1019.2 mb]
Winds: from the ESE (120 degrees) at 12 MPH (10 knots; 5.2 m/s)
Visibility: 10 or more miles (16+ km)
Ceiling: at least 12,000 feet AGL
Clouds: sky clear below 12,000 feet AGL
Present Weather: automated observation with no human augmentation;
there may or may not be significant weather present at this time
KBKV 300253Z AUTO 12010KT 10SM CLR 27/17 A3011 RMK AO2 SLP192 T02670172 51016

Conditions at: KBKV observed 30 April 2017  01:53 UTC
Temperature: 27.8°C (82°F)
Dewpoint: 17.8°C (64°F) [RH = 55%]
Pressure (altimeter): 30.10 inches Hg (1019.4 mb)
[Sea-level pressure: 1018.9 mb]
Winds: from the ESE (110 degrees) at 12 MPH (10 knots; 5.2 m/s)
gusting to 17 MPH (15 knots; 7.8 m/s)
Visibility: 10 or more miles (16+ km)
Ceiling: at least 12,000 feet AGL
Clouds: sky clear below 12,000 feet AGL
Present Weather: automated observation with no human augmentation;
there may or may not be significant weather present at this time
KBKV 300153Z AUTO 11010G15KT 10SM CLR 28/18 A3010 RMK AO2 SLP189 T02780178

Conditions at: KBKV observed 30 April 2017  00:53 UTC
Temperature: 28.3°C (83°F)
Dewpoint: 16.7°C (62°F) [RH = 49%]
Pressure (altimeter): 30.08 inches Hg (1018.7 mb)
[Sea-level pressure: 1018.3 mb]
Winds: from the ESE (110 degrees) at 6 MPH (5 knots; 2.6 m/s)
Visibility: 10 or more miles (16+ km)
Ceiling: at least 12,000 feet AGL
Clouds: sky clear below 12,000 feet AGL
Present Weather: no significant weather observed at this time
KBKV 300053Z 11005KT 10SM CLR 28/17 A3008 RMK AO2 SLP183 T02830167

Conditions at: KBKV observed 29 April 2017  23:53 UTC
Temperature: 31.1°C (88°F)
Dewpoint: 15.6°C (60°F) [RH = 39%]
Pressure (altimeter): 30.06 inches Hg (1018.0 mb)
[Sea-level pressure: 1017.6 mb]
Winds: from the ESE (120 degrees) at 9 MPH (8 knots; 4.2 m/s)
Visibility: 10 or more miles (16+ km)
Ceiling: at least 12,000 feet AGL
Clouds: sky clear below 12,000 feet AGL
Present Weather: no significant weather observed at this time
KBKV 292353Z 12008KT 10SM CLR 31/16 A3006 RMK AO2 SLP176 T03110156 10356 20311 53003

Conditions at: KBKV observed 29 April 2017  22:53 UTC
Temperature: 32.8°C (91°F)
Dewpoint: 11.7°C (53°F) [RH = 28%]
Pressure (altimeter): 30.05 inches Hg (1017.7 mb)
[Sea-level pressure: 1017.3 mb]
Winds: from the ESE (120 degrees) at 10 MPH (9 knots; 4.7 m/s)
gusting to 18 MPH (16 knots; 8.3 m/s)
Visibility: 10 or more miles (16+ km)
Ceiling: at least 12,000 feet AGL
Clouds: few clouds at 8500 feet AGL
Present Weather: no significant weather observed at this time
KBKV 292253Z 12009G16KT 10SM FEW085 33/12 A3005 RMK AO2 SLP173 T03280117

Conditions at: KBKV observed 29 April 2017  21:53 UTC
Temperature: 33.3°C (92°F)
Dewpoint: 13.3°C (56°F) [RH = 30%]
Pressure (altimeter): 30.05 inches Hg (1017.7 mb)
[Sea-level pressure: 1017.2 mb]
Winds: from the E (100 degrees) at 10 MPH (9 knots; 4.7 m/s)
Visibility: 10 or more miles (16+ km)
Ceiling: at least 12,000 feet AGL
Clouds: few clouds at 10000 feet AGL
Present Weather: no significant weather observed at this time
KBKV 292153Z 10009KT 10SM FEW100 33/13 A3005 RMK AO2 SLP172 T03330133

Conditions at: KBKV observed 29 April 2017  20:53 UTC
Temperature: 33.9°C (93°F)
Dewpoint: 15.6°C (60°F) [RH = 34%]
Pressure (altimeter): 30.05 inches Hg (1017.7 mb)
[Sea-level pressure: 1017.4 mb]
Winds: from the ESE (110 degrees) at 14 MPH (12 knots; 6.2 m/s)
Visibility: 10 or more miles (16+ km)
Ceiling: 10000 feet AGL
Clouds: scattered clouds at 7500 feet AGL
broken clouds at 10000 feet AGL
Present Weather: no significant weather observed at this time
KBKV 292053Z 11012KT 10SM SCT075 BKN100 34/16 A3005 RMK AO2 SLP174 T03390156 56018

Conditions at: KBKV observed 29 April 2017  19:53 UTC
Temperature: 35.0°C (95°F)
Dewpoint: 16.1°C (61°F) [RH = 33%]
Pressure (altimeter): 30.06 inches Hg (1018.0 mb)
[Sea-level pressure: 1017.8 mb]
Winds: from the ESE (120 degrees) at 15 MPH (13 knots; 6.8 m/s)
gusting to 21 MPH (18 knots; 9.4 m/s)
Visibility: 10 or more miles (16+ km)
Ceiling: at least 12,000 feet AGL
Clouds: few clouds at 9500 feet AGL
Present Weather: no significant weather observed at this time
KBKV 291953Z 12013G18KT 080V150 10SM FEW095 35/16 A3006 RMK AO2 SLP178 T03500161

Conditions at: KBKV observed 29 April 2017  18:53 UTC
Temperature: 34.4°C (94°F)
Dewpoint: 16.1°C (61°F) [RH = 34%]
Pressure (altimeter): 30.09 inches Hg (1019.0 mb)
[Sea-level pressure: 1018.6 mb]
Winds: from the ESE (120 degrees) at 15 MPH (13 knots; 6.8 m/s)
Visibility: 10 or more miles (16+ km)
Ceiling: at least 12,000 feet AGL
Clouds: scattered clouds at 7000 feet AGL
scattered clouds at 9500 feet AGL
Present Weather: no significant weather observed at this time
KBKV 291853Z 12013KT 10SM SCT070 SCT095 34/16 A3009 RMK AO2 SLP186 T03440161

Conditions at: KBKV observed 29 April 2017  17:53 UTC
Temperature: 34.4°C (94°F)
Dewpoint: 16.7°C (62°F) [RH = 35%]
Pressure (altimeter): 30.10 inches Hg (1019.4 mb)
[Sea-level pressure: 1019.2 mb]
Winds: from the SE (140 degrees) at 20 MPH (17 knots; 8.8 m/s)
gusting to 26 MPH (23 knots; 12.0 m/s)
Visibility: 10 or more miles (16+ km)
Ceiling: at least 12,000 feet AGL
Clouds: few clouds at 6000 feet AGL
Present Weather: no significant weather observed at this time
KBKV 291753Z 14017G23KT 10SM FEW060 34/17 A3010 RMK AO2 SLP192 T03440167 10344 20233 58009

Conditions at: KBKV observed 29 April 2017  16:53 UTC
Temperature: 32.8°C (91°F)
Dewpoint: 18.3°C (65°F) [RH = 42%]
Pressure (altimeter): 30.13 inches Hg (1020.4 mb)
[Sea-level pressure: 1019.9 mb]
Winds: from the ESE (110 degrees) at 13 MPH (11 knots; 5.7 m/s)
Visibility: 10 or more miles (16+ km)
Ceiling: at least 12,000 feet AGL
Clouds: scattered clouds at 5000 feet AGL
Present Weather: no significant weather observed at this time
KBKV 291653Z 11011KT 10SM SCT050 33/18 A3013 RMK AO2 SLP199 T03280183

Conditions at: KBKV observed 29 April 2017  15:53 UTC
Temperature: 31.7°C (89°F)
Dewpoint: 18.9°C (66°F) [RH = 47%]
Pressure (altimeter): 30.14 inches Hg (1020.7 mb)
[Sea-level pressure: 1020.3 mb]
Winds: from the SE (130 degrees) at 18 MPH (16 knots; 8.3 m/s)
gusting to 28 MPH (24 knots; 12.5 m/s)
Visibility: 10 or more miles (16+ km)
Ceiling: at least 12,000 feet AGL
Clouds: few clouds at 4000 feet AGL
Present Weather: no significant weather observed at this time
KBKV 291553Z 13016G24KT 10SM FEW040 32/19 A3014 RMK AO2 SLP203 T03170189

Conditions at: KBKV observed 29 April 2017  14:53 UTC
Temperature: 31.1°C (88°F)
Dewpoint: 20.6°C (69°F) [RH = 54%]
Pressure (altimeter): 30.13 inches Hg (1020.4 mb)
[Sea-level pressure: 1020.1 mb]
Winds: from the SE (140 degrees) at 15 MPH (13 knots; 6.8 m/s)
gusting to 23 MPH (20 knots; 10.4 m/s)
Visibility: 10 or more miles (16+ km)
Ceiling: at least 12,000 feet AGL
Clouds: scattered clouds at 3300 feet AGL
Present Weather: no significant weather observed at this time
KBKV 291453Z 14013G20KT 10SM SCT033 31/21 A3013 RMK AO2 SLP201 T03110206 58002

Conditions at: KBKV observed 29 April 2017  14:28 UTC
Temperature: 29.4°C (85°F)
Dewpoint: 20.6°C (69°F) [RH = 59%]
Pressure (altimeter): 30.13 inches Hg (1020.4 mb)
Winds: from the SE (140 degrees) at 16 MPH (14 knots; 7.3 m/s)
gusting to 23 MPH (20 knots; 10.4 m/s)
Visibility: 10 or more miles (16+ km)
Ceiling: 3000 feet AGL
Clouds: broken clouds at 3000 feet AGL
Present Weather: no significant weather observed at this time
KBKV 291428Z 14014G20KT 10SM BKN030 29/21 A3013 RMK AO2 T02940206

Conditions at: KBKV observed 29 April 2017  13:53 UTC
Temperature: 28.3°C (83°F)
Dewpoint: 21.1°C (70°F) [RH = 65%]
Pressure (altimeter): 30.14 inches Hg (1020.7 mb)
[Sea-level pressure: 1020.2 mb]
Winds: from the SE (130 degrees) at 16 MPH (14 knots; 7.3 m/s)
gusting to 21 MPH (18 knots; 9.4 m/s)
Visibility: 10 or more miles (16+ km)
Ceiling: 2200 feet AGL
Clouds: broken clouds at 2200 feet AGL
Present Weather: no significant weather observed at this time
KBKV 291353Z 13014G18KT 10SM BKN022 28/21 A3014 RMK AO2 SLP202 T02830211

Conditions at: KBKV observed 29 April 2017  13:26 UTC
Temperature: 26.7°C (80°F)
Dewpoint: 21.7°C (71°F) [RH = 74%]
Pressure (altimeter): 30.15 inches Hg (1021.1 mb)
Winds: from the SE (140 degrees) at 10 MPH (9 knots; 4.7 m/s)
Visibility: 10 or more miles (16+ km)
Ceiling: 2000 feet AGL
Clouds: scattered clouds at 1500 feet AGL
broken clouds at 2000 feet AGL
Present Weather: no significant weather observed at this time
KBKV 291326Z 14009KT 10SM SCT015 BKN020 27/22 A3015 RMK AO2 T02670217

Conditions at: KBKV observed 29 April 2017  13:17 UTC
Temperature: 26.1°C (79°F)
Dewpoint: 21.7°C (71°F) [RH = 77%]
Pressure (altimeter): 30.15 inches Hg (1021.1 mb)
Winds: from the ESE (120 degrees) at 14 MPH (12 knots; 6.2 m/s)
Visibility: 10 or more miles (16+ km)
Ceiling: 1300 feet AGL
Clouds: broken clouds at 1300 feet AGL
Present Weather: no significant weather observed at this time
KBKV 291317Z 12012KT 10SM BKN013 26/22 A3015 RMK AO2 T02610217

Conditions at: KBKV observed 29 April 2017  13:08 UTC
Temperature: 26.1°C (79°F)
Dewpoint: 22.2°C (72°F) [RH = 79%]
Pressure (altimeter): 30.15 inches Hg (1021.1 mb)
Winds: from the ESE (120 degrees) at 12 MPH (10 knots; 5.2 m/s)
Visibility: 10 or more miles (16+ km)
Ceiling: at least 12,000 feet AGL
Clouds: scattered clouds at 1100 feet AGL
Present Weather: no significant weather observed at this time
KBKV 291308Z 12010KT 10SM SCT011 26/22 A3015 RMK AO2 T02610222

Conditions at: KBKV observed 29 April 2017  12:53 UTC
Temperature: 25.0°C (77°F)
Dewpoint: 22.2°C (72°F) [RH = 84%]
Pressure (altimeter): 30.14 inches Hg (1020.7 mb)
[Sea-level pressure: 1020.4 mb]
Winds: from the ESE (120 degrees) at 8 MPH (7 knots; 3.6 m/s)
Visibility: 10 or more miles (16+ km)
Ceiling: 1000 feet AGL
Clouds: broken clouds at 1000 feet AGL
Present Weather: no significant weather observed at this time
KBKV 291253Z 12007KT 10SM BKN010 25/22 A3014 RMK AO2 SLP204 T02500222

Conditions at: KBKV observed 29 April 2017  12:23 UTC
Temperature: 23.9°C (75°F)
Dewpoint: 22.2°C (72°F) [RH = 90%]
Pressure (altimeter): 30.14 inches Hg (1020.7 mb)
Winds: from the SE (130 degrees) at 10 MPH (9 knots; 4.7 m/s)
Visibility: 9 miles (14 km)
Ceiling: 900 feet AGL
Clouds: broken clouds at 900 feet AGL
Present Weather: no significant weather observed at this time
KBKV 291223Z 13009KT 9SM BKN009 24/22 A3014 RMK AO2 CIG 006V012 T02390222

Conditions at: KBKV observed 29 April 2017  11:53 UTC
Temperature: 23.3°C (74°F)
Dewpoint: 22.2°C (72°F) [RH = 94%]
Pressure (altimeter): 30.14 inches Hg (1020.7 mb)
[Sea-level pressure: 1020.3 mb]
Winds: from the ESE (120 degrees) at 9 MPH (8 knots; 4.2 m/s)
Visibility: 9 miles (14 km)
Ceiling: 700 feet AGL
Clouds: broken clouds at 700 feet AGL
Present Weather: no significant weather observed at this time
KBKV 291153Z 12008KT 9SM BKN007 23/22 A3014 RMK AO2 SLP203 T02330222 10239 20222 51010

Conditions at: KBKV observed 29 April 2017  11:50 UTC
Temperature: 23.0°C (73°F)
Dewpoint: 22.0°C (72°F) [RH = 94%]
Pressure (altimeter): 30.14 inches Hg (1020.7 mb)
Winds: from the ESE (120 degrees) at 9 MPH (8 knots; 4.2 m/s)
Visibility: 9 miles (14 km)
Ceiling: 700 feet AGL
Clouds: broken clouds at 700 feet AGL
Present Weather: no significant weather observed at this time
KBKV 291150Z 12008KT 9SM BKN007 23/22 A3014 RMK AO2

Conditions at: KBKV observed 29 April 2017  11:32 UTC
Temperature: 22.8°C (73°F)
Dewpoint: 21.7°C (71°F) [RH = 94%]
Pressure (altimeter): 30.14 inches Hg (1020.7 mb)
Winds: from the ESE (120 degrees) at 6 MPH (5 knots; 2.6 m/s)
Visibility: 8 miles (13 km)
Ceiling: at least 12,000 feet AGL
Clouds: scattered clouds at 800 feet AGL
Present Weather: no significant weather observed at this time
KBKV 291132Z 12005KT 8SM SCT008 23/22 A3014 RMK AO2 T02280217

Conditions at: KBKV observed 29 April 2017  10:53 UTC
Temperature: 22.8°C (73°F)
Dewpoint: 21.1°C (70°F) [RH = 90%]
Pressure (altimeter): 30.12 inches Hg (1020.1 mb)
[Sea-level pressure: 1019.6 mb]
Winds: from the ESE (110 degrees) at 6 MPH (5 knots; 2.6 m/s)
Visibility: 9 miles (14 km)
Ceiling: at least 12,000 feet AGL
Clouds: sky clear below 12,000 feet AGL
Present Weather: automated observation with no human augmentation;
there may or may not be significant weather present at this time
KBKV 291053Z AUTO 11005KT 9SM CLR 23/21 A3012 RMK AO2 SLP196 T02280211

Conditions at: KBKV observed 29 April 2017  09:53 UTC
Temperature: 22.2°C (72°F)
Dewpoint: 20.6°C (69°F) [RH = 91%]
Pressure (altimeter): 30.11 inches Hg (1019.7 mb)
[Sea-level pressure: 1019.3 mb]
Winds: from the ESE (110 degrees) at 5 MPH (4 knots; 2.1 m/s)
Visibility: 10 or more miles (16+ km)
Ceiling: at least 12,000 feet AGL
Clouds: sky clear below 12,000 feet AGL
Present Weather: automated observation with no human augmentation;
there may or may not be significant weather present at this time
KBKV 290953Z AUTO 11004KT 10SM CLR 22/21 A3011 RMK AO2 SLP193 T02220206

Conditions at: KBKV observed 29 April 2017  08:53 UTC
Temperature: 22.8°C (73°F)
Dewpoint: 20.6°C (69°F) [RH = 87%]
Pressure (altimeter): 30.10 inches Hg (1019.4 mb)
[Sea-level pressure: 1019.1 mb]
Winds: from the ESE (120 degrees) at 5 MPH (4 knots; 2.1 m/s)
Visibility: 10 or more miles (16+ km)
Ceiling: at least 12,000 feet AGL
Clouds: sky clear below 12,000 feet AGL
Present Weather: automated observation with no human augmentation;
there may or may not be significant weather present at this time
KBKV 290853Z AUTO 12004KT 10SM CLR 23/21 A3010 RMK AO2 SLP191 T02280206 56005

Conditions at: KBKV observed 29 April 2017  07:53 UTC
Temperature: 22.2°C (72°F)
Dewpoint: 19.4°C (67°F) [RH = 84%]
Pressure (altimeter): 30.10 inches Hg (1019.4 mb)
[Sea-level pressure: 1019.1 mb]
Winds: from the ESE (110 degrees) at 5 MPH (4 knots; 2.1 m/s)
Visibility: 10 or more miles (16+ km)
Ceiling: at least 12,000 feet AGL
Clouds: sky clear below 12,000 feet AGL
Present Weather: automated observation with no human augmentation;
there may or may not be significant weather present at this time
KBKV 290753Z AUTO 11004KT 10SM CLR 22/19 A3010 RMK AO2 SLP191 T02220194

Conditions at: KBKV observed 29 April 2017  06:53 UTC
Temperature: 22.8°C (73°F)
Dewpoint: 19.4°C (67°F) [RH = 81%]
Pressure (altimeter): 30.11 inches Hg (1019.7 mb)
[Sea-level pressure: 1019.3 mb]
Winds: from the ESE (110 degrees) at 5 MPH (4 knots; 2.1 m/s)
Visibility: 10 or more miles (16+ km)
Ceiling: at least 12,000 feet AGL
Clouds: sky clear below 12,000 feet AGL
Present Weather: automated observation with no human augmentation;
there may or may not be significant weather present at this time
KBKV 290653Z AUTO 11004KT 10SM CLR 23/19 A3011 RMK AO2 SLP193 T02280194

Conditions at: KBKV observed 29 April 2017  05:53 UTC
Temperature: 23.9°C (75°F)
Dewpoint: 19.4°C (67°F) [RH = 76%]
Pressure (altimeter): 30.12 inches Hg (1020.1 mb)
[Sea-level pressure: 1019.6 mb]
Winds: from the SE (130 degrees) at 6 MPH (5 knots; 2.6 m/s)
Visibility: 10 or more miles (16+ km)
Ceiling: at least 12,000 feet AGL
Clouds: sky clear below 12,000 feet AGL
Present Weather: automated observation with no human augmentation;
there may or may not be significant weather present at this time
KBKV 290553Z AUTO 13005KT 10SM CLR 24/19 A3012 RMK AO2 SLP196 T02390194 10294 20233 51006

Conditions at: KBKV observed 29 April 2017  04:53 UTC
Temperature: 25.0°C (77°F)
Dewpoint: 20.0°C (68°F) [RH = 74%]
Pressure (altimeter): 30.11 inches Hg (1019.7 mb)
[Sea-level pressure: 1019.5 mb]
Winds: from the SE (140 degrees) at 7 MPH (6 knots; 3.1 m/s)
Visibility: 10 or more miles (16+ km)
Ceiling: at least 12,000 feet AGL
Clouds: sky clear below 12,000 feet AGL
Present Weather: automated observation with no human augmentation;
there may or may not be significant weather present at this time
KBKV 290453Z AUTO 14006KT 10SM CLR 25/20 A3011 RMK AO2 SLP195 T02500200 403670178

Conditions at: KBKV observed 29 April 2017  03:53 UTC
Temperature: 25.6°C (78°F)
Dewpoint: 19.4°C (67°F) [RH = 69%]
Pressure (altimeter): 30.11 inches Hg (1019.7 mb)
[Sea-level pressure: 1019.4 mb]
Winds: from the S (170 degrees) at 9 MPH (8 knots; 4.2 m/s)
Visibility: 10 or more miles (16+ km)
Ceiling: at least 12,000 feet AGL
Clouds: sky clear below 12,000 feet AGL
Present Weather: automated observation with no human augmentation;
there may or may not be significant weather present at this time
KBKV 290353Z AUTO 17008KT 10SM CLR 26/19 A3011 RMK AO2 SLP194 T02560194